Abbot, Maine
Current Conditions -  °F | °C
As of 1:15 PM on Tuesday 21 Oct 2014 (Local Time) from KWVL Reporting Station
Overcast Overcast  
Wind Chill: 11°   Ceiling: 3700
Heat Index: 11°   Visibility: 10mi
Dew Point:   Wind: 7mph
Humidity: 62%   Direction: 30°NNE
Pressure: 30.03"   Gusts: NA
Location:  44.94°N, 69.7°W
Report Text: KWVL 211715Z 03006KT 10SM BKN037 BKN042 OVC055 11/04 A3003 RMK AO1
Loading
Personal Weather Stations






























Interactive Weather Map
Tropical Storm Tracking
New forecast layout! Learn more

10-Day Weather Forecast

Advertisements
Track Severe Weather on mobile